James T. Quigg — WDA4612 — position and weather

sailwx.info

Track history (hours):
 
Tides and Currents Weather Stations Pressure Air Temp Water Temp Dewpoint Dewpoint Depression Visibility Wind Speed Wind Dir Waves Ship Positions

James T. Quigg

Owner: Harley Marine Services, INC, Seattle, WA. More information available from US FCC via Universal Licensing System and Coast Guard Vessel Documentation Center.

Last reported at 2018-Feb-22 21:39 UTC. Time now 2018-Feb-23 01:09 UTC.
Position N 47°34' W 122°21'.

Length 30 m; draft 4 m.

Type: Tug. MMSI: 365762734.

Date/timePositionNaut miles runAvg speedWind from/ knotsBaromVisibWave heightAir tempDewpointWater temp
2018-Feb-22 21:39N 47°34' W 122°21'0 0.0
2018-Feb-22 21:30N 47°34' W 122°21'0 0.0
2018-Feb-22 21:00N 47°34' W 122°21'0 0.0
2018-Feb-22 20:30N 47°34' W 122°21'0 0.0
2018-Feb-22 20:00N 47°34' W 122°21'0 0.0
2018-Feb-22 19:30N 47°34' W 122°21'0 0.0
2018-Feb-22 19:00N 47°34' W 122°21'0 0.0
2018-Feb-22 18:30N 47°34' W 122°21'0 0.0
2018-Feb-22 18:00N 47°34' W 122°21'0 0.0
2018-Feb-22 17:30N 47°34' W 122°21'0 0.0
2018-Feb-22 17:00N 47°34' W 122°21'0 0.0
2018-Feb-22 16:30N 47°34' W 122°21'0 0.0
2018-Feb-22 16:00N 47°34' W 122°21'0 0.1
2018-Feb-22 15:29N 47°34' W 122°21'0 0.2
2018-Feb-22 15:00N 47°34' W 122°21'0 0.0
2018-Feb-22 14:30N 47°34' W 122°21'0 0.0
2018-Feb-22 14:00N 47°34' W 122°21'0 0.0
2018-Feb-22 13:30N 47°34' W 122°21'0 0.0
2018-Feb-22 13:00N 47°34' W 122°21'0 0.0
2018-Feb-22 12:30N 47°34' W 122°21'0 0.0
2018-Feb-22 11:58N 47°34' W 122°21'0 0.0
2018-Feb-22 11:30N 47°34' W 122°21'0 0.0
2018-Feb-22 11:00N 47°34' W 122°21'0 0.0
2018-Feb-22 10:30N 47°34' W 122°21'0 0.0
2018-Feb-22 10:00N 47°34' W 122°21'0 0.0
2018-Feb-22 09:30N 47°34' W 122°21'0 0.0
2018-Feb-22 09:00N 47°34' W 122°21'0 0.0
2018-Feb-22 08:30N 47°34' W 122°21'0 0.0
2018-Feb-22 08:00N 47°34' W 122°21'0 0.0
2018-Feb-22 07:30N 47°34' W 122°21'0 0.0
2018-Feb-22 06:59N 47°34' W 122°21'0 0.0
2018-Feb-22 06:30N 47°34' W 122°21'0 0.0
2018-Feb-22 06:00N 47°34' W 122°21'0 0.0
2018-Feb-22 05:29N 47°34' W 122°21'0 0.0
2018-Feb-22 04:57N 47°34' W 122°21'0 0.0
2018-Feb-22 04:28N 47°34' W 122°21'0 0.0
2018-Feb-22 04:00N 47°34' W 122°21'0 0.0
2018-Feb-22 03:30N 47°34' W 122°21'0 0.0
2018-Feb-22 03:00N 47°34' W 122°21'0 0.0
2018-Feb-22 02:30N 47°34' W 122°21'0 0.0
2018-Feb-22 02:00N 47°34' W 122°21'0 0.0
2018-Feb-22 01:30N 47°34' W 122°21'0 0.0
2018-Feb-22 01:00N 47°34' W 122°21'0 0.0
2018-Feb-22 00:30N 47°34' W 122°21'0 0.0
2018-Feb-22 00:00N 47°34' W 122°21'0 0.0
2018-Feb-21 23:30N 47°34' W 122°21'0 0.0
2018-Feb-21 23:00N 47°34' W 122°21'0 0.0
2018-Feb-21 22:30N 47°34' W 122°21'0 0.0
2018-Feb-21 22:00N 47°34' W 122°21'0 0.0
2018-Feb-21 21:30N 47°34' W 122°21'0 0.0
2018-Feb-21 21:00N 47°34' W 122°21'0 0.0
2018-Feb-21 20:30N 47°34' W 122°21'0 0.0
2018-Feb-21 20:00N 47°34' W 122°21'0 0.0
2018-Feb-21 19:30N 47°34' W 122°21'0 0.0
2018-Feb-21 19:00N 47°34' W 122°21'0 0.0
2018-Feb-21 18:29N 47°34' W 122°21'3 6.5
2018-Feb-21 18:00N 47°37' W 122°24'4 8.9
2018-Feb-21 17:30N 47°40' W 122°28'5 9.3
2018-Feb-21 17:00N 47°45' W 122°27'5 9.5
2018-Feb-21 16:30N 47°49' W 122°28'5 9.1
2018-Feb-21 16:00N 47°54' W 122°30'5 9.2
2018-Feb-21 15:30N 47°57' W 122°35'24 9.6
2018-Feb-21 13:02N 48°19' W 122°47'0 9.4
2018-Feb-21 12:59N 48°20' W 122°47'4 9.5
2018-Feb-21 12:30N 48°24' W 122°45'5 9.4
2018-Feb-21 12:00N 48°29' W 122°43'4 7.9
2018-Feb-21 11:30N 48°31' W 122°39'3 6.2
2018-Feb-21 11:00N 48°30' W 122°34'0 0.0
2018-Feb-21 10:30N 48°30' W 122°34'0 0.0
2018-Feb-21 10:00N 48°30' W 122°34'0 0.0
2018-Feb-21 09:29N 48°30' W 122°34'0 0.0
2018-Feb-21 09:00N 48°30' W 122°34'0 0.0
2018-Feb-21 08:30N 48°30' W 122°34'0 0.0
2018-Feb-21 08:00N 48°30' W 122°34'0 0.0
2018-Feb-21 07:30N 48°30' W 122°34'0 0.0
2018-Feb-21 07:00N 48°30' W 122°34'0 0.0
2018-Feb-21 06:30N 48°30' W 122°34'0 0.0
2018-Feb-21 06:00N 48°30' W 122°34'0 0.0
2018-Feb-21 05:30N 48°30' W 122°34'0 0.0
2018-Feb-21 05:00N 48°30' W 122°34'0 0.0
2018-Feb-21 04:30N 48°30' W 122°34'0 0.0
2018-Feb-21 04:00N 48°30' W 122°34'0 0.0
2018-Feb-21 03:30N 48°30' W 122°34'0 0.0
2018-Feb-21 03:00N 48°30' W 122°34'0 0.0
2018-Feb-21 02:30N 48°30' W 122°34'0 0.0
2018-Feb-21 02:00N 48°30' W 122°34'0 0.0
2018-Feb-21 01:30N 48°30' W 122°34'0 0.0
2018-Feb-21 01:00N 48°30' W 122°34'0 0.0
2018-Feb-21 00:30N 48°30' W 122°34'1 2.2
2018-Feb-21 00:00N 48°31' W 122°35'3 6.9
2018-Feb-20 23:30N 48°31' W 122°41'3 5.5
2018-Feb-20 23:00N 48°29' W 122°44'3 5.7
2018-Feb-20 22:30N 48°26' W 122°44'3 6.5
2018-Feb-20 22:00N 48°23' W 122°44'3 6.9
2018-Feb-20 21:30N 48°20' W 122°46'22 8.8
2018-Feb-20 19:00N 47°59' W 122°35'4 9.0
2018-Feb-20 18:30N 47°56' W 122°30'4 8.0
2018-Feb-20 18:00N 47°52' W 122°28'4 7.3
2018-Feb-20 17:30N 47°49' W 122°26'2 4.3
2018-Feb-20 17:01N 47°47' W 122°24'0 0.7
2018-Feb-20 16:29N 47°47' W 122°24'0 0.1
2018-Feb-20 15:59N 47°47' W 122°24'0 0.0
2018-Feb-20 15:29N 47°47' W 122°24'0 0.0
2018-Feb-20 14:59N 47°47' W 122°24'0 0.0
2018-Feb-20 14:29N 47°47' W 122°24'0 0.1
2018-Feb-20 13:59N 47°47' W 122°24'0 0.0
2018-Feb-20 13:29N 47°47' W 122°24'0 0.1
2018-Feb-20 12:59N 47°47' W 122°24'0 0.1
2018-Feb-20 12:29N 47°47' W 122°24'0 0.1
2018-Feb-20 11:59N 47°47' W 122°24'0 0.0
2018-Feb-20 11:29N 47°47' W 122°24'0 0.0
2018-Feb-20 10:59N 47°47' W 122°24'0 0.0
2018-Feb-20 10:29N 47°47' W 122°24'0 0.0
2018-Feb-20 10:00N 47°47' W 122°24'0 0.0
2018-Feb-20 09:30N 47°47' W 122°24'0 0.0
2018-Feb-20 09:00N 47°47' W 122°24'0 0.1
2018-Feb-20 08:30N 47°47' W 122°24'0 0.1
2018-Feb-20 08:00N 47°47' W 122°24'0 0.1
2018-Feb-20 07:31N 47°47' W 122°24'0 0.1
2018-Feb-20 07:00N 47°47' W 122°24'0 0.0
2018-Feb-20 06:30N 47°47' W 122°24'0 0.0
2018-Feb-20 06:01N 47°47' W 122°24'0 0.0
2018-Feb-20 05:30N 47°47' W 122°24'0 0.0
2018-Feb-20 05:00N 47°47' W 122°24'0 0.0
2018-Feb-20 04:30N 47°47' W 122°24'0 0.0
2018-Feb-20 04:00N 47°47' W 122°24'0 0.0
2018-Feb-20 03:30N 47°47' W 122°24'0 0.0
2018-Feb-20 03:00N 47°47' W 122°24'0 0.0
2018-Feb-20 02:30N 47°47' W 122°24'0 0.2
2018-Feb-20 02:00N 47°47' W 122°24'0 0.9
2018-Feb-20 01:30N 47°47' W 122°25'2 3.1
2018-Feb-20 01:00N 47°48' W 122°25'1 2.7
2018-Feb-20 00:30N 47°47' W 122°25'1 2.7
2018-Feb-20 00:00N 47°45' W 122°25'1 2.7
2018-Feb-19 23:30N 47°44' W 122°25'1 2.1
2018-Feb-19 23:00N 47°43' W 122°25'2 4.6
2018-Feb-19 22:30N 47°45' W 122°25'2 4.1
2018-Feb-19 22:00N 47°47' W 122°25'0 0.8
2018-Feb-19 21:30N 47°47' W 122°25'2 3.8
2018-Feb-19 21:00N 47°45' W 122°25'2 3.6
2018-Feb-19 20:30N 47°44' W 122°25'1 2.0
2018-Feb-19 20:00N 47°43' W 122°26'2 4.5
2018-Feb-19 19:31N 47°45' W 122°25'2 4.3
2018-Feb-19 19:00N 47°47' W 122°25'0 0.9
2018-Feb-19 18:31N 47°47' W 122°25'2 3.1
2018-Feb-19 18:00N 47°46' W 122°24'2 3.6
2018-Feb-19 17:31N 47°48' W 122°25'1 1.2
2018-Feb-19 17:00N 47°47' W 122°25'1 2.8
2018-Feb-19 16:30N 47°46' W 122°24'1 2.4
2018-Feb-19 16:00N 47°44' W 122°25'1 2.2
2018-Feb-19 15:30N 47°43' W 122°25'2 3.6
2018-Feb-19 15:00N 47°45' W 122°25'3 5.2
2018-Feb-19 14:30N 47°48' W 122°25'1 1.0
2018-Feb-19 14:00N 47°47' W 122°25'1 2.4
2018-Feb-19 13:31N 47°46' W 122°25'1 2.1
2018-Feb-19 13:00N 47°45' W 122°25'1 2.3
2018-Feb-19 12:30N 47°44' W 122°25'1 1.6
2018-Feb-19 12:00N 47°43' W 122°25'2 4.5
2018-Feb-19 11:30N 47°45' W 122°25'3 5.0
2018-Feb-19 11:00N 47°48' W 122°25'1 1.6
2018-Feb-19 10:30N 47°47' W 122°25'1 2.0
2018-Feb-19 10:00N 47°46' W 122°25'1 1.9
2018-Feb-19 09:30N 47°45' W 122°25'1 1.9
2018-Feb-19 09:00N 47°44' W 122°25'1 2.1
2018-Feb-19 08:30N 47°43' W 122°25'2 3.0
2018-Feb-19 08:00N 47°45' W 122°24'2 4.4
2018-Feb-19 07:31N 47°47' W 122°25'1 1.6
2018-Feb-19 07:00N 47°47' W 122°25'1 2.5
2018-Feb-19 06:30N 47°46' W 122°25'1 2.6
2018-Feb-19 06:00N 47°45' W 122°25'1 3.0
2018-Feb-19 05:30N 47°43' W 122°25'1 2.5
2018-Feb-19 05:00N 47°45' W 122°24'2 4.6
2018-Feb-19 04:30N 47°47' W 122°25'1 1.1
2018-Feb-19 04:00N 47°47' W 122°25'1 2.0
2018-Feb-19 03:31N 47°46' W 122°25'1 2.1
2018-Feb-19 03:01N 47°45' W 122°25'1 2.1
2018-Feb-19 02:30N 47°44' W 122°25'1 2.3
2018-Feb-19 02:00N 47°43' W 122°25'1 1.3
2018-Feb-19 01:30N 47°44' W 122°24'2 4.2
2018-Feb-19 01:00N 47°46' W 122°24'2 5.0
2018-Feb-19 00:30N 47°48' W 122°25'3 6.5
2018-Feb-19 00:00N 47°51' W 122°28'30 5.6
2018-Feb-18 18:42N 48°17' W 122°48'1 6.6
2018-Feb-18 18:29N 48°19' W 122°48'3 6.5
2018-Feb-18 17:58N 48°22' W 122°46'3 7.1
2018-Feb-18 17:31N 48°25' W 122°45'4 7.3
2018-Feb-18 17:00N 48°29' W 122°44'3 6.2
2018-Feb-18 16:30N 48°31' W 122°41'3 5.4
2018-Feb-18 16:00N 48°31' W 122°37'2 3.6
2018-Feb-18 15:30N 48°31' W 122°35'1 1.0
2018-Feb-18 15:00N 48°30' W 122°34'0 0.0
2018-Feb-18 14:25N 48°30' W 122°34'0 0.0
2018-Feb-18 13:49N 48°30' W 122°34'0 0.0
2018-Feb-18 13:25N 48°30' W 122°34'0 0.0
2018-Feb-18 12:55N 48°30' W 122°34'0 0.0
2018-Feb-18 12:25N 48°30' W 122°34'0 0.0
2018-Feb-18 11:55N 48°30' W 122°34'0 0.0
2018-Feb-18 11:25N 48°30' W 122°34'0 0.0
2018-Feb-18 10:55N 48°30' W 122°34'0 0.0
2018-Feb-18 10:25N 48°30' W 122°34'0 0.0
2018-Feb-18 09:55N 48°30' W 122°34'0 0.0
2018-Feb-18 09:25N 48°30' W 122°34'0 0.0
2018-Feb-18 08:55N 48°30' W 122°34'0 0.0
2018-Feb-18 08:28N 48°30' W 122°34'0 0.0
2018-Feb-18 07:58N 48°30' W 122°34'0 0.0
2018-Feb-18 07:28N 48°30' W 122°34'0 0.0
2018-Feb-18 06:58N 48°30' W 122°34'0 0.0
2018-Feb-18 06:28N 48°30' W 122°34'0 0.0
2018-Feb-18 05:58N 48°30' W 122°34'0 0.0
2018-Feb-18 05:28N 48°30' W 122°34'0 0.0
2018-Feb-18 04:58N 48°30' W 122°34'0 0.0
2018-Feb-18 04:28N 48°30' W 122°34'0 0.0
2018-Feb-18 03:58N 48°30' W 122°34'0 0.0
2018-Feb-18 03:28N 48°30' W 122°34'0 0.0
2018-Feb-18 02:58N 48°30' W 122°34'0 0.0
2018-Feb-18 02:28N 48°30' W 122°34'0 0.0
2018-Feb-18 01:58N 48°30' W 122°34'0 0.0
2018-Feb-18 01:28N 48°30' W 122°34'0 0.0
2018-Feb-18 00:58N 48°30' W 122°34'0 0.0
2018-Feb-18 00:28N 48°30' W 122°34'0 0.0
2018-Feb-17 23:58N 48°30' W 122°34'0 0.0
2018-Feb-17 23:28N 48°30' W 122°34'0 0.0
2018-Feb-17 22:58N 48°30' W 122°34'0 0.0
2018-Feb-17 22:28N 48°30' W 122°34'0 0.0
2018-Feb-17 21:58N 48°30' W 122°34'0 0.0
2018-Feb-17 21:28N 48°30' W 122°34'0 0.0
2018-Feb-17 20:58N 48°30' W 122°34'0 0.0
2018-Feb-17 20:22N 48°30' W 122°34'0 0.0
2018-Feb-17 19:58N 48°30' W 122°34'0 0.0
2018-Feb-17 19:28N 48°30' W 122°34'0 0.0
2018-Feb-17 18:58N 48°30' W 122°34'0 0.0
2018-Feb-17 18:28N 48°30' W 122°34'0 0.0
2018-Feb-17 17:58N 48°30' W 122°34'0 0.0
2018-Feb-17 17:28N 48°30' W 122°34'0 0.0
2018-Feb-17 16:54N 48°30' W 122°34'0 0.0
2018-Feb-17 16:27N 48°30' W 122°34'0 0.0
2018-Feb-17 15:58N 48°30' W 122°34'0 0.0
2018-Feb-17 15:27N 48°30' W 122°34'0 0.0
2018-Feb-17 15:00N 48°30' W 122°34'0 0.9
2018-Feb-17 14:30N 48°31' W 122°34'1 2.3
2018-Feb-17 14:00N 48°32' W 122°36'3 5.5
2018-Feb-17 13:30N 48°31' W 122°40'3 5.6
2018-Feb-17 13:00N 48°30' W 122°43'5 9.3
2018-Feb-17 12:30N 48°25' W 122°44'5 9.0
2018-Feb-17 11:58N 48°20' W 122°45'7 7.3
2018-Feb-17 10:59N 48°13' W 122°48'2 4.7
2018-Feb-17 10:29N 48°11' W 122°46'2 4.9
2018-Feb-17 10:00N 48°10' W 122°43'9 6.1
2018-Feb-17 08:26N 48°01' W 122°37'3 7.5
2018-Feb-17 07:59N 47°58' W 122°34'4 8.2
2018-Feb-17 07:30N 47°56' W 122°29'3 6.6
2018-Feb-17 07:00N 47°53' W 122°28'3 6.5
2018-Feb-17 06:30N 47°50' W 122°27'4 7.1
2018-Feb-17 06:00N 47°46' W 122°26'4 7.0
2018-Feb-17 05:30N 47°43' W 122°26'4 7.2
2018-Feb-17 05:00N 47°39' W 122°27'3 6.9
2018-Feb-17 04:30N 47°37' W 122°23'2 4.0
2018-Feb-17 04:00N 47°36' W 122°21'0 0.5
2018-Feb-17 03:29N 47°35' W 122°21'0 0.0
2018-Feb-17 02:59N 47°35' W 122°21'0 0.0
2018-Feb-17 02:29N 47°35' W 122°21'0 0.0
2018-Feb-17 01:53N 47°35' W 122°21'0 0.0
2018-Feb-17 01:26N 47°35' W 122°21'0 0.0
2018-Feb-17 00:56N 47°35' W 122°21'0 0.0
2018-Feb-17 00:26N 47°35' W 122°21'0 0.0
2018-Feb-16 23:59N 47°35' W 122°21'0 0.0
2018-Feb-16 23:29N 47°35' W 122°21'0 0.0
2018-Feb-16 22:59N 47°35' W 122°21'0 0.0
2018-Feb-16 22:29N 47°35' W 122°21'0 0.0
2018-Feb-16 21:59N 47°35' W 122°21'0 0.0
2018-Feb-16 21:30N 47°35' W 122°21'1 1.6
2018-Feb-16 21:00N 47°34' W 122°21'1 2.0
2018-Feb-16 20:30N 47°35' W 122°21'1 2.0
2018-Feb-16 20:00N 47°34' W 122°21'0 0.0
2018-Feb-16 19:30N 47°34' W 122°21'0 0.0
2018-Feb-16 19:00N 47°34' W 122°21'0 0.0
2018-Feb-16 18:30N 47°34' W 122°21'0 0.0
2018-Feb-16 18:00N 47°34' W 122°21'0 0.0
2018-Feb-16 17:30N 47°34' W 122°21'0 0.0
2018-Feb-16 16:57N 47°34' W 122°21'0 0.0
2018-Feb-16 16:24N 47°34' W 122°21'0 0.0
2018-Feb-16 16:00N 47°34' W 122°21'0 0.0
2018-Feb-16 15:30N 47°34' W 122°21'0 0.0
2018-Feb-16 15:00N 47°34' W 122°21'0 0.0
2018-Feb-16 14:24N 47°34' W 122°21'0 0.0
2018-Feb-16 14:00N 47°34' W 122°21'0 0.0
2018-Feb-16 13:30N 47°34' W 122°21'0 0.0
2018-Feb-16 13:00N 47°34' W 122°21'0 0.0
2018-Feb-16 12:30N 47°34' W 122°21'0 0.0
2018-Feb-16 12:00N 47°34' W 122°21'0 0.0
2018-Feb-16 11:30N 47°34' W 122°21'0 0.0
2018-Feb-16 11:00N 47°34' W 122°21'0 0.0
2018-Feb-16 10:30N 47°34' W 122°21'0 0.0
2018-Feb-16 10:00N 47°34' W 122°21'0 0.0
2018-Feb-16 09:24N 47°34' W 122°21'0 0.0
2018-Feb-16 09:00N 47°34' W 122°21'0 0.0
2018-Feb-16 08:30N 47°34' W 122°21'0 0.0
2018-Feb-16 07:57N 47°34' W 122°21'0 0.0
2018-Feb-16 07:30N 47°34' W 122°21'0 0.0
2018-Feb-16 06:57N 47°34' W 122°21'0 0.0
2018-Feb-16 06:30N 47°34' W 122°21'0 0.0
2018-Feb-16 05:51N 47°34' W 122°21'0 0.0
2018-Feb-16 05:30N 47°34' W 122°21'0 0.0
2018-Feb-16 05:00N 47°34' W 122°21'0 0.0
2018-Feb-16 04:27N 47°34' W 122°21'0 0.0
2018-Feb-16 03:57N 47°34' W 122°21'0 0.0
2018-Feb-16 03:29N 47°34' W 122°21'0 0.0
2018-Feb-16 02:57N 47°34' W 122°21'0 0.0
2018-Feb-16 02:27N 47°34' W 122°21'0 0.0
2018-Feb-16 02:00N 47°34' W 122°21'0 0.0
2018-Feb-16 01:30N 47°34' W 122°21'0 0.0
2018-Feb-16 01:00N 47°34' W 122°21'0 0.0
2018-Feb-16 00:30N 47°34' W 122°21'0 0.0
2018-Feb-15 23:59N 47°34' W 122°21'0 0.0
2018-Feb-15 23:29N 47°34' W 122°21'0 0.0
2018-Feb-15 23:00N 47°34' W 122°21'0 0.0
2018-Feb-15 22:29N 47°34' W 122°21'1 1.7
2018-Feb-15 22:00N 47°35' W 122°21'0 0.1
2018-Feb-15 21:30N 47°35' W 122°21'1 2.5
2018-Feb-15 21:00N 47°36' W 122°22'4 7.3
2018-Feb-15 20:30N 47°39' W 122°26'4 7.3
2018-Feb-15 20:00N 47°42' W 122°26'4 7.3
2018-Feb-15 19:30N 47°46' W 122°24'1 2.4
2018-Feb-15 19:00N 47°47' W 122°24'0 0.0
2018-Feb-15 18:29N 47°47' W 122°24'0 0.0
2018-Feb-15 18:00N 47°47' W 122°24'0 0.0
2018-Feb-15 17:29N 47°47' W 122°24'0 0.0
2018-Feb-15 16:59N 47°47' W 122°24'0 0.0
2018-Feb-15 16:29N 47°47' W 122°24'0 0.0
2018-Feb-15 15:59N 47°47' W 122°24'0 0.0
2018-Feb-15 15:30N 47°47' W 122°24'0 0.0
2018-Feb-15 15:00N 47°47' W 122°24'0 0.1
2018-Feb-15 14:29N 47°47' W 122°24'0 0.1
2018-Feb-15 13:59N 47°47' W 122°24'0 0.0
2018-Feb-15 13:29N 47°47' W 122°24'0 0.0
2018-Feb-15 12:59N 47°47' W 122°24'0 0.0
2018-Feb-15 12:29N 47°47' W 122°24'0 0.0
2018-Feb-15 11:59N 47°47' W 122°24'0 0.1
2018-Feb-15 11:30N 47°47' W 122°24'0 0.1
2018-Feb-15 10:59N 47°47' W 122°24'0 0.0
2018-Feb-15 10:29N 47°47' W 122°24'0 0.0
2018-Feb-15 09:59N 47°47' W 122°24'0 0.0
2018-Feb-15 09:29N 47°47' W 122°24'0 0.0
2018-Feb-15 08:59N 47°47' W 122°24'0 0.0
2018-Feb-15 08:29N 47°47' W 122°24'0 0.1
2018-Feb-15 07:59N 47°47' W 122°24'0 0.1
2018-Feb-15 07:29N 47°47' W 122°24'0 0.0
2018-Feb-15 06:59N 47°47' W 122°24'0 0.0
2018-Feb-15 06:29N 47°47' W 122°24'0 0.0
2018-Feb-15 05:59N 47°47' W 122°24'0 0.0
2018-Feb-15 05:29N 47°47' W 122°24'0 0.0
2018-Feb-15 04:59N 47°47' W 122°24'0 0.0
2018-Feb-15 04:29N 47°47' W 122°24'0 0.1
2018-Feb-15 03:59N 47°47' W 122°24'0 0.1
2018-Feb-15 03:29N 47°47' W 122°24'0 0.0
2018-Feb-15 02:59N 47°47' W 122°24'0 0.0
2018-Feb-15 02:29N 47°47' W 122°24'0 0.0
2018-Feb-15 01:59N 47°47' W 122°24'0 0.0
2018-Feb-15 01:29N 47°47' W 122°24'0 0.0
2018-Feb-15 00:59N 47°47' W 122°24'0 0.0
2018-Feb-15 00:29N 47°47' W 122°24'0 0.0
2018-Feb-14 23:59N 47°47' W 122°24'0 0.1
2018-Feb-14 23:29N 47°47' W 122°24'0 0.0
2018-Feb-14 22:59N 47°47' W 122°24'0 0.1
2018-Feb-14 22:30N 47°47' W 122°24'0 0.7
2018-Feb-14 22:00N 47°47' W 122°24'1 1.9
2018-Feb-14 21:31N 47°47' W 122°25'3 5.7
2018-Feb-14 21:00N 47°50' W 122°26'3 6.8
2018-Feb-14 20:30N 47°53' W 122°29'3 6.7
2018-Feb-14 20:01N 47°56' W 122°32'3 6.4
2018-Feb-14 19:30N 47°58' W 122°35'19 4.6
2018-Feb-14 15:25N 48°15' W 122°48'8 6.6
2018-Feb-14 14:13N 48°22' W 122°46'1 5.8
2018-Feb-14 13:59N 48°23' W 122°45'3 5.9
2018-Feb-14 13:31N 48°26' W 122°44'3 5.2
2018-Feb-14 13:00N 48°29' W 122°44'2 3.6
2018-Feb-14 12:30N 48°31' W 122°43'2 3.7
2018-Feb-14 12:00N 48°31' W 122°40'2 3.7
2018-Feb-14 11:30N 48°31' W 122°37'1 2.0
2018-Feb-14 11:00N 48°32' W 122°36'1 1.7
2018-Feb-14 10:30N 48°31' W 122°35'0 0.7
2018-Feb-14 09:52N 48°31' W 122°35'0 0.2
2018-Feb-14 09:28N 48°31' W 122°35'0 0.1
2018-Feb-14 08:58N 48°31' W 122°35'0 0.1
2018-Feb-14 08:28N 48°31' W 122°35'0 0.0
2018-Feb-14 07:58N 48°31' W 122°35'0 0.0
2018-Feb-14 07:28N 48°31' W 122°35'0 0.0
2018-Feb-14 06:58N 48°31' W 122°35'0 0.1
2018-Feb-14 06:28N 48°31' W 122°35'0 0.0
2018-Feb-14 05:58N 48°31' W 122°35'0 0.0
2018-Feb-14 05:28N 48°31' W 122°35'0 0.0
2018-Feb-14 04:55N 48°31' W 122°35'0 0.0
2018-Feb-14 04:28N 48°31' W 122°35'0 0.0
2018-Feb-14 03:55N 48°31' W 122°35'0 0.0
2018-Feb-14 03:22N 48°31' W 122°35'0 0.0
2018-Feb-14 02:58N 48°31' W 122°35'0 0.0
2018-Feb-14 02:28N 48°31' W 122°35'0 0.0
2018-Feb-14 01:58N 48°31' W 122°35'0 0.0
2018-Feb-14 01:28N 48°31' W 122°35'0 0.0
2018-Feb-14 00:58N 48°31' W 122°35'0 0.1
2018-Feb-14 00:28N 48°31' W 122°35'0 0.0
2018-Feb-13 23:58N 48°31' W 122°35'0 0.0
2018-Feb-13 23:28N 48°31' W 122°35'0 0.0
2018-Feb-13 22:58N 48°31' W 122°35'0 0.0
2018-Feb-13 22:30N 48°31' W 122°35'0 0.0
2018-Feb-13 22:00N 48°31' W 122°35'0 0.0
2018-Feb-13 21:30N 48°31' W 122°35'0 0.6
2018-Feb-13 21:00N 48°31' W 122°35'1 2.7
2018-Feb-13 20:30N 48°32' W 122°37'3 5.5
2018-Feb-13 20:00N 48°31' W 122°41'2 4.8
2018-Feb-13 19:30N 48°30' W 122°43'4 7.5
2018-Feb-13 19:00N 48°26' W 122°44'4 7.8
2018-Feb-13 18:28N 48°22' W 122°45'23 7.9
2018-Feb-13 15:33N 47°59' W 122°35'1 9.4
2018-Feb-13 15:27N 47°59' W 122°35'4 9.1
2018-Feb-13 15:00N 47°56' W 122°30'4 8.5
2018-Feb-13 14:30N 47°52' W 122°28'4 8.2
2018-Feb-13 14:00N 47°48' W 122°25'2 3.5
2018-Feb-13 13:30N 47°47' W 122°24'0 0.0
2018-Feb-13 13:00N 47°47' W 122°24'0 0.1
2018-Feb-13 12:28N 47°47' W 122°24'0 0.0
2018-Feb-13 11:58N 47°47' W 122°24'0 0.0
2018-Feb-13 11:28N 47°47' W 122°24'0 0.0
2018-Feb-13 10:58N 47°47' W 122°24'0 0.0
2018-Feb-13 10:28N 47°47' W 122°24'0 0.0
2018-Feb-13 09:58N 47°47' W 122°24'0 0.0
2018-Feb-13 09:28N 47°47' W 122°24'0 0.1
2018-Feb-13 08:58N 47°47' W 122°24'0 0.1
2018-Feb-13 08:28N 47°47' W 122°24'0 0.0
2018-Feb-13 07:58N 47°47' W 122°24'0 0.0
2018-Feb-13 07:28N 47°47' W 122°24'0 0.0
2018-Feb-13 06:58N 47°47' W 122°24'0 0.0
2018-Feb-13 06:28N 47°47' W 122°24'0 0.1
2018-Feb-13 05:58N 47°47' W 122°24'0 0.1
2018-Feb-13 05:28N 47°47' W 122°24'0 0.0
2018-Feb-13 04:58N 47°47' W 122°24'0 0.0
2018-Feb-13 04:28N 47°47' W 122°24'0 0.0
2018-Feb-13 03:58N 47°47' W 122°24'0 0.0
2018-Feb-13 03:28N 47°47' W 122°24'0 0.0
2018-Feb-13 02:58N 47°47' W 122°24'0 0.0
2018-Feb-13 02:28N 47°47' W 122°24'0 0.1
2018-Feb-13 01:58N 47°47' W 122°24'0 0.1
2018-Feb-13 01:28N 47°47' W 122°24'0 0.0
2018-Feb-13 00:58N 47°47' W 122°24'0 0.0
2018-Feb-13 00:28N 47°47' W 122°24'0 0.0
2018-Feb-12 23:58N 47°47' W 122°24'0 0.0
2018-Feb-12 23:28N 47°47' W 122°24'0 0.0
2018-Feb-12 22:58N 47°47' W 122°24'0 0.0
2018-Feb-12 22:28N 47°47' W 122°24'0 0.1
2018-Feb-12 21:58N 47°47' W 122°24'  
Track history (hours):
 
Tides and Currents Weather Stations Pressure Air Temp Water Temp Dewpoint Dewpoint Depression Visibility Wind Speed Wind Dir Waves Ship Positions

James T. Quigg

Owner: Harley Marine Services, INC, Seattle, WA. More information available from US FCC via Universal Licensing System and Coast Guard Vessel Documentation Center.

Last reported at 2018-Feb-22 21:39 UTC. Time now 2018-Feb-23 01:09 UTC.
Position N 47°34' W 122°21'.

Length 30 m; draft 4 m.

Type: Tug. MMSI: 365762734.

Date/timePositionNaut miles runAvg speedWind from/ knotsBaromVisibWave heightAir tempDewpointWater temp
2018-Feb-22 21:39N 47°34' W 122°21'0 0.0
2018-Feb-22 21:30N 47°34' W 122°21'0 0.0
2018-Feb-22 21:00N 47°34' W 122°21'0 0.0
2018-Feb-22 20:30N 47°34' W 122°21'0 0.0
2018-Feb-22 20:00N 47°34' W 122°21'0 0.0
2018-Feb-22 19:30N 47°34' W 122°21'0 0.0
2018-Feb-22 19:00N 47°34' W 122°21'0 0.0
2018-Feb-22 18:30N 47°34' W 122°21'0 0.0
2018-Feb-22 18:00N 47°34' W 122°21'0 0.0
2018-Feb-22 17:30N 47°34' W 122°21'0 0.0
2018-Feb-22 17:00N 47°34' W 122°21'0 0.0
2018-Feb-22 16:30N 47°34' W 122°21'0 0.0
2018-Feb-22 16:00N 47°34' W 122°21'0 0.1
2018-Feb-22 15:29N 47°34' W 122°21'0 0.2
2018-Feb-22 15:00N 47°34' W 122°21'0 0.0
2018-Feb-22 14:30N 47°34' W 122°21'0 0.0
2018-Feb-22 14:00N 47°34' W 122°21'0 0.0
2018-Feb-22 13:30N 47°34' W 122°21'0 0.0
2018-Feb-22 13:00N 47°34' W 122°21'0 0.0
2018-Feb-22 12:30N 47°34' W 122°21'0 0.0
2018-Feb-22 11:58N 47°34' W 122°21'0 0.0
2018-Feb-22 11:30N 47°34' W 122°21'0 0.0
2018-Feb-22 11:00N 47°34' W 122°21'0 0.0
2018-Feb-22 10:30N 47°34' W 122°21'0 0.0
2018-Feb-22 10:00N 47°34' W 122°21'0 0.0
2018-Feb-22 09:30N 47°34' W 122°21'0 0.0
2018-Feb-22 09:00N 47°34' W 122°21'0 0.0
2018-Feb-22 08:30N 47°34' W 122°21'0 0.0
2018-Feb-22 08:00N 47°34' W 122°21'0 0.0
2018-Feb-22 07:30N 47°34' W 122°21'0 0.0
2018-Feb-22 06:59N 47°34' W 122°21'0 0.0
2018-Feb-22 06:30N 47°34' W 122°21'0 0.0
2018-Feb-22 06:00N 47°34' W 122°21'0 0.0
2018-Feb-22 05:29N 47°34' W 122°21'0 0.0
2018-Feb-22 04:57N 47°34' W 122°21'0 0.0
2018-Feb-22 04:28N 47°34' W 122°21'0 0.0
2018-Feb-22 04:00N 47°34' W 122°21'0 0.0
2018-Feb-22 03:30N 47°34' W 122°21'0 0.0
2018-Feb-22 03:00N 47°34' W 122°21'0 0.0
2018-Feb-22 02:30N 47°34' W 122°21'0 0.0
2018-Feb-22 02:00N 47°34' W 122°21'0 0.0
2018-Feb-22 01:30N 47°34' W 122°21'0 0.0
2018-Feb-22 01:00N 47°34' W 122°21'0 0.0
2018-Feb-22 00:30N 47°34' W 122°21'0 0.0
2018-Feb-22 00:00N 47°34' W 122°21'0 0.0
2018-Feb-21 23:30N 47°34' W 122°21'0 0.0
2018-Feb-21 23:00N 47°34' W 122°21'0 0.0
2018-Feb-21 22:30N 47°34' W 122°21'0 0.0
2018-Feb-21 22:00N 47°34' W 122°21'0 0.0
2018-Feb-21 21:30N 47°34' W 122°21'0 0.0
2018-Feb-21 21:00N 47°34' W 122°21'0 0.0
2018-Feb-21 20:30N 47°34' W 122°21'0 0.0
2018-Feb-21 20:00N 47°34' W 122°21'0 0.0
2018-Feb-21 19:30N 47°34' W 122°21'0 0.0
2018-Feb-21 19:00N 47°34' W 122°21'0 0.0
2018-Feb-21 18:29N 47°34' W 122°21'3 6.5
2018-Feb-21 18:00N 47°37' W 122°24'4 8.9
2018-Feb-21 17:30N 47°40' W 122°28'5 9.3
2018-Feb-21 17:00N 47°45' W 122°27'5 9.5
2018-Feb-21 16:30N 47°49' W 122°28'5 9.1
2018-Feb-21 16:00N 47°54' W 122°30'5 9.2
2018-Feb-21 15:30N 47°57' W 122°35'24 9.6
2018-Feb-21 13:02N 48°19' W 122°47'0 9.4
2018-Feb-21 12:59N 48°20' W 122°47'4 9.5
2018-Feb-21 12:30N 48°24' W 122°45'5 9.4
2018-Feb-21 12:00N 48°29' W 122°43'4 7.9
2018-Feb-21 11:30N 48°31' W 122°39'3 6.2
2018-Feb-21 11:00N 48°30' W 122°34'0 0.0
2018-Feb-21 10:30N 48°30' W 122°34'0 0.0
2018-Feb-21 10:00N 48°30' W 122°34'0 0.0
2018-Feb-21 09:29N 48°30' W 122°34'0 0.0
2018-Feb-21 09:00N 48°30' W 122°34'0 0.0
2018-Feb-21 08:30N 48°30' W 122°34'0 0.0
2018-Feb-21 08:00N 48°30' W 122°34'0 0.0
2018-Feb-21 07:30N 48°30' W 122°34'0 0.0
2018-Feb-21 07:00N 48°30' W 122°34'0 0.0
2018-Feb-21 06:30N 48°30' W 122°34'0 0.0
2018-Feb-21 06:00N 48°30' W 122°34'0 0.0
2018-Feb-21 05:30N 48°30' W 122°34'0 0.0
2018-Feb-21 05:00N 48°30' W 122°34'0 0.0
2018-Feb-21 04:30N 48°30' W 122°34'0 0.0
2018-Feb-21 04:00N 48°30' W 122°34'0 0.0
2018-Feb-21 03:30N 48°30' W 122°34'0 0.0
2018-Feb-21 03:00N 48°30' W 122°34'0 0.0
2018-Feb-21 02:30N 48°30' W 122°34'0 0.0
2018-Feb-21 02:00N 48°30' W 122°34'0 0.0
2018-Feb-21 01:30N 48°30' W 122°34'0 0.0
2018-Feb-21 01:00N 48°30' W 122°34'0 0.0
2018-Feb-21 00:30N 48°30' W 122°34'1 2.2
2018-Feb-21 00:00N 48°31' W 122°35'3 6.9
2018-Feb-20 23:30N 48°31' W 122°41'3 5.5
2018-Feb-20 23:00N 48°29' W 122°44'3 5.7
2018-Feb-20 22:30N 48°26' W 122°44'3 6.5
2018-Feb-20 22:00N 48°23' W 122°44'3 6.9
2018-Feb-20 21:30N 48°20' W 122°46'22 8.8
2018-Feb-20 19:00N 47°59' W 122°35'4 9.0
2018-Feb-20 18:30N 47°56' W 122°30'4 8.0
2018-Feb-20 18:00N 47°52' W 122°28'4 7.3
2018-Feb-20 17:30N 47°49' W 122°26'2 4.3
2018-Feb-20 17:01N 47°47' W 122°24'0 0.7
2018-Feb-20 16:29N 47°47' W 122°24'0 0.1
2018-Feb-20 15:59N 47°47' W 122°24'0 0.0
2018-Feb-20 15:29N 47°47' W 122°24'0 0.0
2018-Feb-20 14:59N 47°47' W 122°24'0 0.0
2018-Feb-20 14:29N 47°47' W 122°24'0 0.1
2018-Feb-20 13:59N 47°47' W 122°24'0 0.0
2018-Feb-20 13:29N 47°47' W 122°24'0 0.1
2018-Feb-20 12:59N 47°47' W 122°24'0 0.1
2018-Feb-20 12:29N 47°47' W 122°24'0 0.1
2018-Feb-20 11:59N 47°47' W 122°24'0 0.0
2018-Feb-20 11:29N 47°47' W 122°24'0 0.0
2018-Feb-20 10:59N 47°47' W 122°24'0 0.0
2018-Feb-20 10:29N 47°47' W 122°24'0 0.0
2018-Feb-20 10:00N 47°47' W 122°24'0 0.0
2018-Feb-20 09:30N 47°47' W 122°24'0 0.0
2018-Feb-20 09:00N 47°47' W 122°24'0 0.1
2018-Feb-20 08:30N 47°47' W 122°24'0 0.1
2018-Feb-20 08:00N 47°47' W 122°24'0 0.1
2018-Feb-20 07:31N 47°47' W 122°24'0 0.1
2018-Feb-20 07:00N 47°47' W 122°24'0 0.0
2018-Feb-20 06:30N 47°47' W 122°24'0 0.0
2018-Feb-20 06:01N 47°47' W 122°24'0 0.0
2018-Feb-20 05:30N 47°47' W 122°24'0 0.0
2018-Feb-20 05:00N 47°47' W 122°24'0 0.0
2018-Feb-20 04:30N 47°47' W 122°24'0 0.0
2018-Feb-20 04:00N 47°47' W 122°24'0 0.0
2018-Feb-20 03:30N 47°47' W 122°24'0 0.0
2018-Feb-20 03:00N 47°47' W 122°24'0 0.0
2018-Feb-20 02:30N 47°47' W 122°24'0 0.2
2018-Feb-20 02:00N 47°47' W 122°24'0 0.9
2018-Feb-20 01:30N 47°47' W 122°25'2 3.1
2018-Feb-20 01:00N 47°48' W 122°25'1 2.7
2018-Feb-20 00:30N 47°47' W 122°25'1 2.7
2018-Feb-20 00:00N 47°45' W 122°25'1 2.7
2018-Feb-19 23:30N 47°44' W 122°25'1 2.1
2018-Feb-19 23:00N 47°43' W 122°25'2 4.6
2018-Feb-19 22:30N 47°45' W 122°25'2 4.1
2018-Feb-19 22:00N 47°47' W 122°25'0 0.8
2018-Feb-19 21:30N 47°47' W 122°25'2 3.8
2018-Feb-19 21:00N 47°45' W 122°25'2 3.6
2018-Feb-19 20:30N 47°44' W 122°25'1 2.0
2018-Feb-19 20:00N 47°43' W 122°26'2 4.5
2018-Feb-19 19:31N 47°45' W 122°25'2 4.3
2018-Feb-19 19:00N 47°47' W 122°25'0 0.9
2018-Feb-19 18:31N 47°47' W 122°25'2 3.1
2018-Feb-19 18:00N 47°46' W 122°24'2 3.6
2018-Feb-19 17:31N 47°48' W 122°25'1 1.2
2018-Feb-19 17:00N 47°47' W 122°25'1 2.8
2018-Feb-19 16:30N 47°46' W 122°24'1 2.4
2018-Feb-19 16:00N 47°44' W 122°25'1 2.2
2018-Feb-19 15:30N 47°43' W 122°25'2 3.6
2018-Feb-19 15:00N 47°45' W 122°25'3 5.2
2018-Feb-19 14:30N 47°48' W 122°25'1 1.0
2018-Feb-19 14:00N 47°47' W 122°25'1 2.4
2018-Feb-19 13:31N 47°46' W 122°25'1 2.1
2018-Feb-19 13:00N 47°45' W 122°25'1 2.3
2018-Feb-19 12:30N 47°44' W 122°25'1 1.6
2018-Feb-19 12:00N 47°43' W 122°25'2 4.5
2018-Feb-19 11:30N 47°45' W 122°25'3 5.0
2018-Feb-19 11:00N 47°48' W 122°25'1 1.6
2018-Feb-19 10:30N 47°47' W 122°25'1 2.0
2018-Feb-19 10:00N 47°46' W 122°25'1 1.9
2018-Feb-19 09:30N 47°45' W 122°25'1 1.9
2018-Feb-19 09:00N 47°44' W 122°25'1 2.1
2018-Feb-19 08:30N 47°43' W 122°25'2 3.0
2018-Feb-19 08:00N 47°45' W 122°24'2 4.4
2018-Feb-19 07:31N 47°47' W 122°25'1 1.6
2018-Feb-19 07:00N 47°47' W 122°25'1 2.5
2018-Feb-19 06:30N 47°46' W 122°25'1 2.6
2018-Feb-19 06:00N 47°45' W 122°25'1 3.0
2018-Feb-19 05:30N 47°43' W 122°25'1 2.5
2018-Feb-19 05:00N 47°45' W 122°24'2 4.6
2018-Feb-19 04:30N 47°47' W 122°25'1 1.1
2018-Feb-19 04:00N 47°47' W 122°25'1 2.0
2018-Feb-19 03:31N 47°46' W 122°25'1 2.1
2018-Feb-19 03:01N 47°45' W 122°25'1 2.1
2018-Feb-19 02:30N 47°44' W 122°25'1 2.3
2018-Feb-19 02:00N 47°43' W 122°25'1 1.3
2018-Feb-19 01:30N 47°44' W 122°24'2 4.2
2018-Feb-19 01:00N 47°46' W 122°24'2 5.0
2018-Feb-19 00:30N 47°48' W 122°25'3 6.5
2018-Feb-19 00:00N 47°51' W 122°28'30 5.6
2018-Feb-18 18:42N 48°17' W 122°48'1 6.6
2018-Feb-18 18:29N 48°19' W 122°48'3 6.5
2018-Feb-18 17:58N 48°22' W 122°46'3 7.1
2018-Feb-18 17:31N 48°25' W 122°45'4 7.3
2018-Feb-18 17:00N 48°29' W 122°44'3 6.2
2018-Feb-18 16:30N 48°31' W 122°41'3 5.4
2018-Feb-18 16:00N 48°31' W 122°37'2 3.6
2018-Feb-18 15:30N 48°31' W 122°35'1 1.0
2018-Feb-18 15:00N 48°30' W 122°34'0 0.0
2018-Feb-18 14:25N 48°30' W 122°34'0 0.0
2018-Feb-18 13:49N 48°30' W 122°34'0 0.0
2018-Feb-18 13:25N 48°30' W 122°34'0 0.0
2018-Feb-18 12:55N 48°30' W 122°34'0 0.0
2018-Feb-18 12:25N 48°30' W 122°34'0 0.0
2018-Feb-18 11:55N 48°30' W 122°34'0 0.0
2018-Feb-18 11:25N 48°30' W 122°34'0 0.0
2018-Feb-18 10:55N 48°30' W 122°34'0 0.0
2018-Feb-18 10:25N 48°30' W 122°34'0 0.0
2018-Feb-18 09:55N 48°30' W 122°34'0 0.0
2018-Feb-18 09:25N 48°30' W 122°34'0 0.0
2018-Feb-18 08:55N 48°30' W 122°34'0 0.0
2018-Feb-18 08:28N 48°30' W 122°34'0 0.0
2018-Feb-18 07:58N 48°30' W 122°34'0 0.0
2018-Feb-18 07:28N 48°30' W 122°34'0 0.0
2018-Feb-18 06:58N 48°30' W 122°34'0 0.0
2018-Feb-18 06:28N 48°30' W 122°34'0 0.0
2018-Feb-18 05:58N 48°30' W 122°34'0 0.0
2018-Feb-18 05:28N 48°30' W 122°34'0 0.0
2018-Feb-18 04:58N 48°30' W 122°34'0 0.0
2018-Feb-18 04:28N 48°30' W 122°34'0 0.0
2018-Feb-18 03:58N 48°30' W 122°34'0 0.0
2018-Feb-18 03:28N 48°30' W 122°34'0 0.0
2018-Feb-18 02:58N 48°30' W 122°34'0 0.0
2018-Feb-18 02:28N 48°30' W 122°34'0 0.0
2018-Feb-18 01:58N 48°30' W 122°34'0 0.0
2018-Feb-18 01:28N 48°30' W 122°34'0 0.0
2018-Feb-18 00:58N 48°30' W 122°34'0 0.0
2018-Feb-18 00:28N 48°30' W 122°34'0 0.0
2018-Feb-17 23:58N 48°30' W 122°34'0 0.0
2018-Feb-17 23:28N 48°30' W 122°34'0 0.0
2018-Feb-17 22:58N 48°30' W 122°34'0 0.0
2018-Feb-17 22:28N 48°30' W 122°34'0 0.0
2018-Feb-17 21:58N 48°30' W 122°34'0 0.0
2018-Feb-17 21:28N 48°30' W 122°34'0 0.0
2018-Feb-17 20:58N 48°30' W 122°34'0 0.0
2018-Feb-17 20:22N 48°30' W 122°34'0 0.0
2018-Feb-17 19:58N 48°30' W 122°34'0 0.0
2018-Feb-17 19:28N 48°30' W 122°34'0 0.0
2018-Feb-17 18:58N 48°30' W 122°34'0 0.0
2018-Feb-17 18:28N 48°30' W 122°34'0 0.0
2018-Feb-17 17:58N 48°30' W 122°34'0 0.0
2018-Feb-17 17:28N 48°30' W 122°34'0 0.0
2018-Feb-17 16:54N 48°30' W 122°34'0 0.0
2018-Feb-17 16:27N 48°30' W 122°34'0 0.0
2018-Feb-17 15:58N 48°30' W 122°34'0 0.0
2018-Feb-17 15:27N 48°30' W 122°34'0 0.0
2018-Feb-17 15:00N 48°30' W 122°34'0 0.9
2018-Feb-17 14:30N 48°31' W 122°34'1 2.3
2018-Feb-17 14:00N 48°32' W 122°36'3 5.5
2018-Feb-17 13:30N 48°31' W 122°40'3 5.6
2018-Feb-17 13:00N 48°30' W 122°43'5 9.3
2018-Feb-17 12:30N 48°25' W 122°44'5 9.0
2018-Feb-17 11:58N 48°20' W 122°45'7 7.3
2018-Feb-17 10:59N 48°13' W 122°48'2 4.7
2018-Feb-17 10:29N 48°11' W 122°46'2 4.9
2018-Feb-17 10:00N 48°10' W 122°43'9 6.1
2018-Feb-17 08:26N 48°01' W 122°37'3 7.5
2018-Feb-17 07:59N 47°58' W 122°34'4 8.2
2018-Feb-17 07:30N 47°56' W 122°29'3 6.6
2018-Feb-17 07:00N 47°53' W 122°28'3 6.5
2018-Feb-17 06:30N 47°50' W 122°27'4 7.1
2018-Feb-17 06:00N 47°46' W 122°26'4 7.0
2018-Feb-17 05:30N 47°43' W 122°26'4 7.2
2018-Feb-17 05:00N 47°39' W 122°27'3 6.9
2018-Feb-17 04:30N 47°37' W 122°23'2 4.0
2018-Feb-17 04:00N 47°36' W 122°21'0 0.5
2018-Feb-17 03:29N 47°35' W 122°21'0 0.0
2018-Feb-17 02:59N 47°35' W 122°21'0 0.0
2018-Feb-17 02:29N 47°35' W 122°21'0 0.0
2018-Feb-17 01:53N 47°35' W 122°21'0 0.0
2018-Feb-17 01:26N 47°35' W 122°21'0 0.0
2018-Feb-17 00:56N 47°35' W 122°21'0 0.0
2018-Feb-17 00:26N 47°35' W 122°21'0 0.0
2018-Feb-16 23:59N 47°35' W 122°21'0 0.0
2018-Feb-16 23:29N 47°35' W 122°21'0 0.0
2018-Feb-16 22:59N 47°35' W 122°21'0 0.0
2018-Feb-16 22:29N 47°35' W 122°21'0 0.0
2018-Feb-16 21:59N 47°35' W 122°21'0 0.0
2018-Feb-16 21:30N 47°35' W 122°21'1 1.6
2018-Feb-16 21:00N 47°34' W 122°21'1 2.0
2018-Feb-16 20:30N 47°35' W 122°21'1 2.0
2018-Feb-16 20:00N 47°34' W 122°21'0 0.0
2018-Feb-16 19:30N 47°34' W 122°21'0 0.0
2018-Feb-16 19:00N 47°34' W 122°21'0 0.0
2018-Feb-16 18:30N 47°34' W 122°21'0 0.0
2018-Feb-16 18:00N 47°34' W 122°21'0 0.0
2018-Feb-16 17:30N 47°34' W 122°21'0 0.0
2018-Feb-16 16:57N 47°34' W 122°21'0 0.0
2018-Feb-16 16:24N 47°34' W 122°21'0 0.0
2018-Feb-16 16:00N 47°34' W 122°21'0 0.0
2018-Feb-16 15:30N 47°34' W 122°21'0 0.0
2018-Feb-16 15:00N 47°34' W 122°21'0 0.0
2018-Feb-16 14:24N 47°34' W 122°21'0 0.0
2018-Feb-16 14:00N 47°34' W 122°21'0 0.0
2018-Feb-16 13:30N 47°34' W 122°21'0 0.0
2018-Feb-16 13:00N 47°34' W 122°21'0 0.0
2018-Feb-16 12:30N 47°34' W 122°21'0 0.0
2018-Feb-16 12:00N 47°34' W 122°21'0 0.0
2018-Feb-16 11:30N 47°34' W 122°21'0 0.0
2018-Feb-16 11:00N 47°34' W 122°21'0 0.0
2018-Feb-16 10:30N 47°34' W 122°21'0 0.0
2018-Feb-16 10:00N 47°34' W 122°21'0 0.0
2018-Feb-16 09:24N 47°34' W 122°21'0 0.0
2018-Feb-16 09:00N 47°34' W 122°21'0 0.0
2018-Feb-16 08:30N 47°34' W 122°21'0 0.0
2018-Feb-16 07:57N 47°34' W 122°21'0 0.0
2018-Feb-16 07:30N 47°34' W 122°21'0 0.0
2018-Feb-16 06:57N 47°34' W 122°21'0 0.0
2018-Feb-16 06:30N 47°34' W 122°21'0 0.0
2018-Feb-16 05:51N 47°34' W 122°21'0 0.0
2018-Feb-16 05:30N 47°34' W 122°21'0 0.0
2018-Feb-16 05:00N 47°34' W 122°21'0 0.0
2018-Feb-16 04:27N 47°34' W 122°21'0 0.0
2018-Feb-16 03:57N 47°34' W 122°21'0 0.0
2018-Feb-16 03:29N 47°34' W 122°21'0 0.0
2018-Feb-16 02:57N 47°34' W 122°21'0 0.0
2018-Feb-16 02:27N 47°34' W 122°21'0 0.0
2018-Feb-16 02:00N 47°34' W 122°21'0 0.0
2018-Feb-16 01:30N 47°34' W 122°21'0 0.0
2018-Feb-16 01:00N 47°34' W 122°21'0 0.0
2018-Feb-16 00:30N 47°34' W 122°21'0 0.0
2018-Feb-15 23:59N 47°34' W 122°21'0 0.0
2018-Feb-15 23:29N 47°34' W 122°21'0 0.0
2018-Feb-15 23:00N 47°34' W 122°21'0 0.0
2018-Feb-15 22:29N 47°34' W 122°21'1 1.7
2018-Feb-15 22:00N 47°35' W 122°21'0 0.1
2018-Feb-15 21:30N 47°35' W 122°21'1 2.5
2018-Feb-15 21:00N 47°36' W 122°22'4 7.3
2018-Feb-15 20:30N 47°39' W 122°26'4 7.3
2018-Feb-15 20:00N 47°42' W 122°26'4 7.3
2018-Feb-15 19:30N 47°46' W 122°24'1 2.4
2018-Feb-15 19:00N 47°47' W 122°24'0 0.0
2018-Feb-15 18:29N 47°47' W 122°24'0 0.0
2018-Feb-15 18:00N 47°47' W 122°24'0 0.0
2018-Feb-15 17:29N 47°47' W 122°24'0 0.0
2018-Feb-15 16:59N 47°47' W 122°24'0 0.0
2018-Feb-15 16:29N 47°47' W 122°24'0 0.0
2018-Feb-15 15:59N 47°47' W 122°24'0 0.0
2018-Feb-15 15:30N 47°47' W 122°24'0 0.0
2018-Feb-15 15:00N 47°47' W 122°24'0 0.1
2018-Feb-15 14:29N 47°47' W 122°24'0 0.1
2018-Feb-15 13:59N 47°47' W 122°24'0 0.0
2018-Feb-15 13:29N 47°47' W 122°24'0 0.0
2018-Feb-15 12:59N 47°47' W 122°24'0 0.0
2018-Feb-15 12:29N 47°47' W 122°24'0 0.0
2018-Feb-15 11:59N 47°47' W 122°24'0 0.1
2018-Feb-15 11:30N 47°47' W 122°24'0 0.1
2018-Feb-15 10:59N 47°47' W 122°24'0 0.0
2018-Feb-15 10:29N 47°47' W 122°24'0 0.0
2018-Feb-15 09:59N 47°47' W 122°24'0 0.0
2018-Feb-15 09:29N 47°47' W 122°24'0 0.0
2018-Feb-15 08:59N 47°47' W 122°24'0 0.0
2018-Feb-15 08:29N 47°47' W 122°24'0 0.1
2018-Feb-15 07:59N 47°47' W 122°24'0 0.1
2018-Feb-15 07:29N 47°47' W 122°24'0 0.0
2018-Feb-15 06:59N 47°47' W 122°24'0 0.0
2018-Feb-15 06:29N 47°47' W 122°24'0 0.0
2018-Feb-15 05:59N 47°47' W 122°24'0 0.0
2018-Feb-15 05:29N 47°47' W 122°24'0 0.0
2018-Feb-15 04:59N 47°47' W 122°24'0 0.0
2018-Feb-15 04:29N 47°47' W 122°24'0 0.1
2018-Feb-15 03:59N 47°47' W 122°24'0 0.1
2018-Feb-15 03:29N 47°47' W 122°24'0 0.0
2018-Feb-15 02:59N 47°47' W 122°24'0 0.0
2018-Feb-15 02:29N 47°47' W 122°24'0 0.0
2018-Feb-15 01:59N 47°47' W 122°24'0 0.0
2018-Feb-15 01:29N 47°47' W 122°24'0 0.0
2018-Feb-15 00:59N 47°47' W 122°24'0 0.0
2018-Feb-15 00:29N 47°47' W 122°24'0 0.0
2018-Feb-14 23:59N 47°47' W 122°24'0 0.1
2018-Feb-14 23:29N 47°47' W 122°24'0 0.0
2018-Feb-14 22:59N 47°47' W 122°24'0 0.1
2018-Feb-14 22:30N 47°47' W 122°24'0 0.7
2018-Feb-14 22:00N 47°47' W 122°24'1 1.9
2018-Feb-14 21:31N 47°47' W 122°25'3 5.7
2018-Feb-14 21:00N 47°50' W 122°26'3 6.8
2018-Feb-14 20:30N 47°53' W 122°29'3 6.7
2018-Feb-14 20:01N 47°56' W 122°32'3 6.4
2018-Feb-14 19:30N 47°58' W 122°35'19 4.6
2018-Feb-14 15:25N 48°15' W 122°48'8 6.6
2018-Feb-14 14:13N 48°22' W 122°46'1 5.8
2018-Feb-14 13:59N 48°23' W 122°45'3 5.9
2018-Feb-14 13:31N 48°26' W 122°44'3 5.2
2018-Feb-14 13:00N 48°29' W 122°44'2 3.6
2018-Feb-14 12:30N 48°31' W 122°43'2 3.7
2018-Feb-14 12:00N 48°31' W 122°40'2 3.7
2018-Feb-14 11:30N 48°31' W 122°37'1 2.0
2018-Feb-14 11:00N 48°32' W 122°36'1 1.7
2018-Feb-14 10:30N 48°31' W 122°35'0 0.7
2018-Feb-14 09:52N 48°31' W 122°35'0 0.2
2018-Feb-14 09:28N 48°31' W 122°35'0 0.1
2018-Feb-14 08:58N 48°31' W 122°35'0 0.1
2018-Feb-14 08:28N 48°31' W 122°35'0 0.0
2018-Feb-14 07:58N 48°31' W 122°35'0 0.0
2018-Feb-14 07:28N 48°31' W 122°35'0 0.0
2018-Feb-14 06:58N 48°31' W 122°35'0 0.1
2018-Feb-14 06:28N 48°31' W 122°35'0 0.0
2018-Feb-14 05:58N 48°31' W 122°35'0 0.0
2018-Feb-14 05:28N 48°31' W 122°35'0 0.0
2018-Feb-14 04:55N 48°31' W 122°35'0 0.0
2018-Feb-14 04:28N 48°31' W 122°35'0 0.0
2018-Feb-14 03:55N 48°31' W 122°35'0 0.0
2018-Feb-14 03:22N 48°31' W 122°35'0 0.0
2018-Feb-14 02:58N 48°31' W 122°35'0 0.0
2018-Feb-14 02:28N 48°31' W 122°35'0 0.0
2018-Feb-14 01:58N 48°31' W 122°35'0 0.0
2018-Feb-14 01:28N 48°31' W 122°35'0 0.0
2018-Feb-14 00:58N 48°31' W 122°35'0 0.1
2018-Feb-14 00:28N 48°31' W 122°35'0 0.0
2018-Feb-13 23:58N 48°31' W 122°35'0 0.0
2018-Feb-13 23:28N 48°31' W 122°35'0 0.0
2018-Feb-13 22:58N 48°31' W 122°35'0 0.0
2018-Feb-13 22:30N 48°31' W 122°35'0 0.0
2018-Feb-13 22:00N 48°31' W 122°35'0 0.0
2018-Feb-13 21:30N 48°31' W 122°35'0 0.6
2018-Feb-13 21:00N 48°31' W 122°35'1 2.7
2018-Feb-13 20:30N 48°32' W 122°37'3 5.5
2018-Feb-13 20:00N 48°31' W 122°41'2 4.8
2018-Feb-13 19:30N 48°30' W 122°43'4 7.5
2018-Feb-13 19:00N 48°26' W 122°44'4 7.8
2018-Feb-13 18:28N 48°22' W 122°45'23 7.9
2018-Feb-13 15:33N 47°59' W 122°35'1 9.4
2018-Feb-13 15:27N 47°59' W 122°35'4 9.1
2018-Feb-13 15:00N 47°56' W 122°30'4 8.5
2018-Feb-13 14:30N 47°52' W 122°28'4 8.2
2018-Feb-13 14:00N 47°48' W 122°25'2 3.5
2018-Feb-13 13:30N 47°47' W 122°24'0 0.0
2018-Feb-13 13:00N 47°47' W 122°24'0 0.1
2018-Feb-13 12:28N 47°47' W 122°24'0 0.0
2018-Feb-13 11:58N 47°47' W 122°24'0 0.0
2018-Feb-13 11:28N 47°47' W 122°24'0 0.0
2018-Feb-13 10:58N 47°47' W 122°24'0 0.0
2018-Feb-13 10:28N 47°47' W 122°24'0 0.0
2018-Feb-13 09:58N 47°47' W 122°24'0 0.0
2018-Feb-13 09:28N 47°47' W 122°24'0 0.1
2018-Feb-13 08:58N 47°47' W 122°24'0 0.1
2018-Feb-13 08:28N 47°47' W 122°24'0 0.0
2018-Feb-13 07:58N 47°47' W 122°24'0 0.0
2018-Feb-13 07:28N 47°47' W 122°24'0 0.0
2018-Feb-13 06:58N 47°47' W 122°24'0 0.0
2018-Feb-13 06:28N 47°47' W 122°24'0 0.1
2018-Feb-13 05:58N 47°47' W 122°24'0 0.1
2018-Feb-13 05:28N 47°47' W 122°24'0 0.0
2018-Feb-13 04:58N 47°47' W 122°24'0 0.0
2018-Feb-13 04:28N 47°47' W 122°24'0 0.0
2018-Feb-13 03:58N 47°47' W 122°24'0 0.0
2018-Feb-13 03:28N 47°47' W 122°24'0 0.0
2018-Feb-13 02:58N 47°47' W 122°24'0 0.0
2018-Feb-13 02:28N 47°47' W 122°24'0 0.1
2018-Feb-13 01:58N 47°47' W 122°24'0 0.1
2018-Feb-13 01:28N 47°47' W 122°24'0 0.0
2018-Feb-13 00:58N 47°47' W 122°24'0 0.0
2018-Feb-13 00:28N 47°47' W 122°24'0 0.0
2018-Feb-12 23:58N 47°47' W 122°24'0 0.0
2018-Feb-12 23:28N 47°47' W 122°24'0 0.0
2018-Feb-12 22:58N 47°47' W 122°24'0 0.0
2018-Feb-12 22:28N 47°47' W 122°24'0 0.1
2018-Feb-12 21:58N 47°47' W 122°24'  

Dump ship's entire track history